createdAt,value
2022-07-25T00:01:21.659Z,23.37
2022-07-25T00:03:50.777Z,23.35
2022-07-25T00:06:18.801Z,23.36
2022-07-25T00:08:46.365Z,23.27
2022-07-25T00:11:13.359Z,23.25
2022-07-25T00:13:40.410Z,23.18
2022-07-25T00:16:07.994Z,23.13
2022-07-25T00:18:35.826Z,23.08
2022-07-25T00:21:03.041Z,23.02
2022-07-25T00:23:30.322Z,23.00
2022-07-25T00:25:57.750Z,22.93
2022-07-25T00:28:24.777Z,22.89
2022-07-25T00:30:52.155Z,22.86
2022-07-25T00:33:19.593Z,22.83
2022-07-25T00:35:46.752Z,22.82
2022-07-25T00:38:15.916Z,22.77
2022-07-25T00:40:43.921Z,22.78
2022-07-25T00:43:10.944Z,22.76
2022-07-25T00:45:38.214Z,22.72
2022-07-25T00:48:05.736Z,22.72
2022-07-25T00:50:33.133Z,22.71
2022-07-25T00:53:00.434Z,22.63
2022-07-25T00:55:28.489Z,22.64
2022-07-25T00:57:55.565Z,22.58
2022-07-25T01:00:23.027Z,22.55
2022-07-25T01:02:50.353Z,22.54
2022-07-25T01:05:18.249Z,22.53
2022-07-25T01:07:46.839Z,22.52
2022-07-25T01:10:13.916Z,22.50
2022-07-25T01:12:59.133Z,22.47
2022-07-25T01:15:26.927Z,22.48
2022-07-25T01:17:53.973Z,22.45
2022-07-25T01:20:22.777Z,22.40
2022-07-25T01:22:50.963Z,22.35
2022-07-25T01:25:19.730Z,22.35
2022-07-25T01:27:54.453Z,22.31
2022-07-25T01:30:24.833Z,22.27
2022-07-25T01:32:52.283Z,22.24
2022-07-25T01:35:19.862Z,22.25
2022-07-25T01:37:48.200Z,22.20
2022-07-25T01:40:15.401Z,22.21
2022-07-25T01:42:43.612Z,22.18
2022-07-25T01:45:13.328Z,22.15
2022-07-25T01:47:41.232Z,22.13
2022-07-25T01:50:09.093Z,22.12
2022-07-25T01:52:37.570Z,22.07
2022-07-25T01:55:05.005Z,22.06
2022-07-25T01:57:33.409Z,22.06
2022-07-25T02:00:07.792Z,22.06
2022-07-25T02:02:36.277Z,22.00
2022-07-25T02:05:03.917Z,21.96
2022-07-25T02:07:31.313Z,21.96
2022-07-25T02:09:58.271Z,21.94
2022-07-25T02:12:25.440Z,21.90
2022-07-25T02:14:52.846Z,21.86
2022-07-25T02:17:20.005Z,21.84
2022-07-25T02:19:47.113Z,21.80
2022-07-25T02:22:14.869Z,21.78
2022-07-25T02:24:41.947Z,21.74
2022-07-25T02:27:08.955Z,21.71
2022-07-25T02:29:36.980Z,21.68
2022-07-25T02:32:04.309Z,21.65
2022-07-25T02:34:31.331Z,21.61
2022-07-25T02:36:58.608Z,21.61
2022-07-25T02:39:25.643Z,21.61
2022-07-25T02:41:52.693Z,21.59
2022-07-25T02:44:19.885Z,21.58
2022-07-25T02:46:46.960Z,21.59
2022-07-25T02:49:14.204Z,21.58
2022-07-25T02:51:41.561Z,21.56
2022-07-25T02:54:08.508Z,21.57
2022-07-25T02:56:35.520Z,21.60
2022-07-25T02:59:02.874Z,21.62
2022-07-25T03:01:30.233Z,21.67
2022-07-25T03:03:57.449Z,21.71
2022-07-25T03:06:24.897Z,21.77
2022-07-25T03:08:51.858Z,21.84
2022-07-25T03:11:19.795Z,21.92
2022-07-25T03:13:47.645Z,22.05
2022-07-25T03:16:14.831Z,22.21
2022-07-25T03:18:41.958Z,22.38
2022-07-25T03:21:09.296Z,22.55
2022-07-25T03:23:37.404Z,22.71
2022-07-25T03:26:04.797Z,22.89
2022-07-25T03:28:32.151Z,23.05
2022-07-25T03:30:59.288Z,23.19
2022-07-25T03:33:26.265Z,23.32
2022-07-25T03:35:53.560Z,23.46
2022-07-25T03:38:20.487Z,23.38
2022-07-25T03:40:47.500Z,23.45
2022-07-25T03:43:15.267Z,23.63
2022-07-25T03:45:42.473Z,23.75
2022-07-25T03:48:09.452Z,23.84
2022-07-25T03:50:36.845Z,23.95
2022-07-25T03:53:03.814Z,23.96
2022-07-25T03:55:33.596Z,24.11
2022-07-25T03:58:01.142Z,24.31
2022-07-25T04:00:28.361Z,24.29
2022-07-25T04:02:55.738Z,24.28
2022-07-25T04:05:23.100Z,24.28
2022-07-25T04:07:50.315Z,24.56
2022-07-25T04:10:17.346Z,24.70
2022-07-25T04:12:44.602Z,24.76
2022-07-25T04:15:12.642Z,24.88
2022-07-25T04:17:39.774Z,25.11
2022-07-25T04:20:07.781Z,25.18
2022-07-25T04:22:37.164Z,25.27
2022-07-25T04:25:05.043Z,25.38
2022-07-25T04:27:32.122Z,25.44
2022-07-25T04:30:00.145Z,25.56
2022-07-25T04:32:27.024Z,25.69
2022-07-25T04:34:55.513Z,25.83
2022-07-25T04:37:22.605Z,25.86
2022-07-25T04:39:49.605Z,25.72
2022-07-25T04:42:16.823Z,25.59
2022-07-25T04:44:43.853Z,25.62
2022-07-25T04:47:10.899Z,25.82
2022-07-25T04:49:38.134Z,26.00
2022-07-25T04:52:05.308Z,26.14
2022-07-25T04:54:32.327Z,25.84
2022-07-25T04:57:00.252Z,25.99
2022-07-25T04:59:27.559Z,25.84
2022-07-25T05:01:54.560Z,25.65
2022-07-25T05:04:21.875Z,25.78
2022-07-25T05:06:49.558Z,25.82
2022-07-25T05:09:17.292Z,25.72
2022-07-25T05:11:49.491Z,25.71
2022-07-25T05:14:18.994Z,25.62
2022-07-25T05:16:49.306Z,25.96
2022-07-25T05:19:16.519Z,26.11
2022-07-25T05:21:49.572Z,26.18
2022-07-25T05:24:24.931Z,26.50
2022-07-25T05:26:53.578Z,26.83
2022-07-25T05:29:23.727Z,27.10
2022-07-25T05:34:39.885Z,26.66
2022-07-25T05:37:07.905Z,27.01
2022-07-25T05:39:35.171Z,27.25
2022-07-25T05:42:02.161Z,27.55
2022-07-25T05:44:29.140Z,27.80
2022-07-25T05:46:56.796Z,27.46
2022-07-25T05:49:24.274Z,27.54
2022-07-25T05:51:51.329Z,27.73
2022-07-25T05:54:19.049Z,27.21
2022-07-25T05:56:46.085Z,26.80
2022-07-25T05:59:13.424Z,26.53
2022-07-25T06:01:40.906Z,26.07
2022-07-25T06:04:08.335Z,25.62
2022-07-25T06:06:36.884Z,25.14
2022-07-25T06:09:07.995Z,24.89
2022-07-25T06:11:36.507Z,24.57
2022-07-25T06:14:19.620Z,24.36
2022-07-25T06:16:48.827Z,24.18
2022-07-25T06:19:15.692Z,24.06
2022-07-25T06:21:43.222Z,24.03
2022-07-25T06:24:10.304Z,23.82
2022-07-25T06:26:40.308Z,23.71
2022-07-25T06:29:08.538Z,23.69
2022-07-25T09:01:08.829Z,30.92
2022-07-25T09:03:36.721Z,31.29
2022-07-25T09:06:20.283Z,31.40
2022-07-25T09:08:55.491Z,30.99
2022-07-25T09:11:33.060Z,30.73
2022-07-25T09:14:14.863Z,30.84
2022-07-25T09:16:44.995Z,30.78
2022-07-25T09:19:19.391Z,30.56
2022-07-25T09:22:02.578Z,30.60
2022-07-25T09:24:30.601Z,30.50
2022-07-25T09:27:00.422Z,30.26
2022-07-25T09:29:30.943Z,30.27
2022-07-25T09:31:59.633Z,30.55
2022-07-25T09:34:43.683Z,30.82
2022-07-25T09:37:13.249Z,30.55
2022-07-25T09:39:48.739Z,30.46
2022-07-25T09:42:36.429Z,31.03
2022-07-25T09:45:13.573Z,31.49
2022-07-25T09:47:54.282Z,31.51
2022-07-25T09:50:23.301Z,31.37
2022-07-25T09:52:57.105Z,30.95
2022-07-25T09:55:24.643Z,30.40
2022-07-25T10:01:07.863Z,30.79
2022-07-25T10:03:53.721Z,30.89
2022-07-25T10:07:04.291Z,29.89
2022-07-25T10:09:32.698Z,29.51
2022-07-25T10:12:05.679Z,29.45
2022-07-25T10:14:38.188Z,29.94
2022-07-25T10:17:06.594Z,29.78
2022-07-25T10:19:42.188Z,29.43
2022-07-25T10:22:40.013Z,29.40
2022-07-25T10:25:20.314Z,30.10
2022-07-25T10:27:52.258Z,30.43
2022-07-25T10:33:15.212Z,31.00
2022-07-25T10:35:42.885Z,31.04
2022-07-25T10:38:10.815Z,30.31
2022-07-25T10:40:40.767Z,29.76
2022-07-25T10:43:10.040Z,29.36
2022-07-25T10:45:39.884Z,29.08
2022-07-25T10:48:09.056Z,29.35
2022-07-25T10:51:07.409Z,29.52
2022-07-25T10:53:46.501Z,29.31
2022-07-25T10:56:19.952Z,29.37
2022-07-25T10:59:04.195Z,29.46
2022-07-25T11:01:34.160Z,29.18
2022-07-25T11:04:05.212Z,29.07
2022-07-25T11:06:58.313Z,28.97
2022-07-25T11:09:31.265Z,29.15
2022-07-25T11:11:59.926Z,29.18
2022-07-25T11:14:53.173Z,29.14
2022-07-25T11:17:31.665Z,28.63
2022-07-25T11:20:02.047Z,28.35
2022-07-25T11:22:37.973Z,28.24
2022-07-25T11:25:16.607Z,28.29
2022-07-25T11:27:43.660Z,28.45
2022-07-25T11:30:33.380Z,28.76
2022-07-25T11:33:07.138Z,28.96
2022-07-25T11:35:35.575Z,28.66
2022-07-25T11:38:04.070Z,28.58
2022-07-25T11:40:34.381Z,28.56
2022-07-25T11:43:04.084Z,28.56
2022-07-25T11:45:38.086Z,28.49
2022-07-25T11:50:59.848Z,28.71
2022-07-25T11:53:43.103Z,28.74
2022-07-25T11:56:42.580Z,28.74
2022-07-25T11:59:08.035Z,28.86
2022-07-25T12:01:44.834Z,28.98
2022-07-25T12:07:15.118Z,28.89
2022-07-25T12:09:42.604Z,28.53
2022-07-25T12:12:10.653Z,28.42
2022-07-25T12:14:44.478Z,28.47
2022-07-25T12:17:13.497Z,28.39
2022-07-25T12:19:48.473Z,28.56
2022-07-25T12:22:16.432Z,28.71
2022-07-25T12:24:44.503Z,28.77
2022-07-25T12:27:15.114Z,28.80
2022-07-25T12:29:43.897Z,28.88
2022-07-25T12:32:12.554Z,28.93
2022-07-25T12:34:40.017Z,28.90
2022-07-25T12:37:10.597Z,29.14
2022-07-25T12:39:37.848Z,29.28
2022-07-25T12:42:09.061Z,29.28
2022-07-25T12:44:37.159Z,29.19
2022-07-25T12:47:21.058Z,29.13
2022-07-25T12:49:49.875Z,29.14
2022-07-25T12:52:17.593Z,29.10
2022-07-25T12:54:45.007Z,28.86
2022-07-25T12:57:20.992Z,28.78
2022-07-25T12:59:57.793Z,28.85
2022-07-25T13:02:25.356Z,28.93
2022-07-25T13:04:52.576Z,29.02
2022-07-25T13:07:19.923Z,28.92
2022-07-25T13:09:57.482Z,28.76
2022-07-25T13:12:26.464Z,28.54
2022-07-25T13:14:53.949Z,28.47
2022-07-25T13:17:26.511Z,28.32
2022-07-25T13:19:57.069Z,28.16
2022-07-25T13:22:24.515Z,28.03
2022-07-25T13:24:52.615Z,27.92
2022-07-25T13:27:21.993Z,27.87
2022-07-25T13:29:56.325Z,27.85
2022-07-25T13:32:26.383Z,27.75
2022-07-25T13:34:58.107Z,27.72
2022-07-25T13:37:27.269Z,27.70
2022-07-25T13:39:55.338Z,27.69
2022-07-25T13:42:24.326Z,27.95
2022-07-25T13:44:54.426Z,28.05
2022-07-25T13:47:25.741Z,28.11
2022-07-25T13:49:57.559Z,28.07
2022-07-25T13:52:29.399Z,28.03
2022-07-25T13:54:58.848Z,27.93
2022-07-25T13:57:27.434Z,27.88
2022-07-25T13:59:55.161Z,28.10
2022-07-25T14:02:22.637Z,28.15
2022-07-25T14:04:50.070Z,28.15
2022-07-25T14:07:17.425Z,28.15
2022-07-25T14:09:44.537Z,28.29
2022-07-25T14:12:12.162Z,28.24
2022-07-25T14:14:40.959Z,28.40
2022-07-25T14:17:08.167Z,28.58
2022-07-25T14:19:37.468Z,28.76
2022-07-25T14:22:05.294Z,28.97
2022-07-25T14:25:00.450Z,29.07
2022-07-25T14:27:34.983Z,28.96
2022-07-25T14:30:02.491Z,28.85
2022-07-25T14:32:30.511Z,28.71
2022-07-25T14:34:58.101Z,28.72
2022-07-25T14:37:25.561Z,28.74
2022-07-25T14:39:54.299Z,28.72
2022-07-25T14:42:22.808Z,28.83
2022-07-25T14:44:49.885Z,28.96
2022-07-25T14:50:04.190Z,29.02
2022-07-25T14:52:33.546Z,28.88
2022-07-25T14:55:01.113Z,29.03
2022-07-25T14:57:51.666Z,28.94
2022-07-25T15:00:24.907Z,28.73
2022-07-25T15:02:56.081Z,28.68
2022-07-25T15:05:27.706Z,28.71
2022-07-25T15:07:54.910Z,28.83
2022-07-25T15:10:22.406Z,28.98
2022-07-25T15:13:02.353Z,29.06
2022-07-25T15:15:39.342Z,29.06
2022-07-25T15:18:13.384Z,29.06
2022-07-25T15:20:43.104Z,28.98
2022-07-25T15:23:32.652Z,28.73
2022-07-25T15:26:02.407Z,28.68
2022-07-25T15:28:37.414Z,28.53
2022-07-25T15:31:06.506Z,28.48
2022-07-25T15:33:34.138Z,28.52
2022-07-25T15:36:02.381Z,28.52
2022-07-25T15:38:31.147Z,28.55
2022-07-25T15:40:59.019Z,28.48
2022-07-25T15:43:28.003Z,28.47
2022-07-25T15:45:55.214Z,28.43
2022-07-25T15:48:23.919Z,28.35
2022-07-25T15:50:54.951Z,28.31
2022-07-25T15:53:23.953Z,28.36
2022-07-25T15:55:56.287Z,28.38
2022-07-25T15:58:28.677Z,28.41
2022-07-25T16:00:57.616Z,28.41
2022-07-25T16:03:24.750Z,28.39
2022-07-25T16:05:55.895Z,28.36
2022-07-25T16:08:26.217Z,28.28
2022-07-25T16:10:53.394Z,28.23
2022-07-25T16:13:44.956Z,28.18
2022-07-25T16:16:13.065Z,28.18
2022-07-25T16:18:41.369Z,28.15
2022-07-25T16:21:11.401Z,28.14
2022-07-25T16:23:43.701Z,28.16
2022-07-25T16:26:13.670Z,28.12
2022-07-25T16:28:42.957Z,28.04
2022-07-25T16:31:10.369Z,28.01
2022-07-25T16:33:43.510Z,27.96
2022-07-25T16:36:16.570Z,27.90
2022-07-25T16:38:47.995Z,27.87
2022-07-25T16:41:18.624Z,27.83
2022-07-25T16:43:46.996Z,27.79
2022-07-25T16:46:14.298Z,27.70
2022-07-25T16:48:42.228Z,27.63
2022-07-25T16:51:11.487Z,27.53
2022-07-25T16:53:40.044Z,27.49
2022-07-25T16:56:17.464Z,27.42
2022-07-25T16:58:46.821Z,27.37
2022-07-25T17:01:18.012Z,27.30
2022-07-25T17:03:47.384Z,27.23
2022-07-25T17:06:16.437Z,27.19
2022-07-25T17:08:43.811Z,27.13
2022-07-25T17:11:10.861Z,27.07
2022-07-25T17:13:38.061Z,27.00
2022-07-25T17:16:06.182Z,26.94
2022-07-25T17:18:33.593Z,26.89
2022-07-25T17:21:04.696Z,26.82
2022-07-25T17:23:42.792Z,26.78
2022-07-25T17:26:12.132Z,26.71
2022-07-25T17:28:40.056Z,26.68
2022-07-25T17:31:07.615Z,26.60
2022-07-25T17:33:37.737Z,26.53
2022-07-25T17:36:06.524Z,26.47
2022-07-25T17:38:36.457Z,26.42
2022-07-25T17:41:04.361Z,26.34
2022-07-25T17:43:37.283Z,26.28
2022-07-25T17:46:04.493Z,26.20
2022-07-25T17:48:37.243Z,26.13
2022-07-25T17:51:06.949Z,26.06
2022-07-25T17:53:33.997Z,25.99
2022-07-25T17:56:05.883Z,25.92
2022-07-25T17:58:33.545Z,25.84
2022-07-25T18:01:01.755Z,25.80
2022-07-25T18:03:29.884Z,25.76
2022-07-25T18:05:57.672Z,25.71
2022-07-25T18:08:24.871Z,25.62
2022-07-25T18:10:51.953Z,25.59
2022-07-25T18:13:23.174Z,25.53
2022-07-25T18:15:55.282Z,25.51
2022-07-25T18:18:34.339Z,25.43
2022-07-25T18:24:40.817Z,25.21
2022-07-25T18:27:08.986Z,25.17
2022-07-25T18:29:39.052Z,25.08
2022-07-25T18:32:18.427Z,24.99
2022-07-25T18:34:49.595Z,24.87
2022-07-25T18:37:18.227Z,24.78
2022-07-25T18:39:49.978Z,24.64
2022-07-25T18:42:18.063Z,24.55
2022-07-25T18:44:45.862Z,24.40
2022-07-25T18:47:12.920Z,24.27
2022-07-25T18:49:44.716Z,24.16
2022-07-25T18:52:14.797Z,24.05
2022-07-25T18:54:49.722Z,23.97
2022-07-25T18:57:18.508Z,23.91
2022-07-25T18:59:46.094Z,23.87
2022-07-25T19:02:16.084Z,23.83
2022-07-25T19:05:01.199Z,23.77
2022-07-25T19:07:32.690Z,23.71
2022-07-25T19:10:00.443Z,23.60
2022-07-25T19:12:27.687Z,23.49
2022-07-25T19:14:55.761Z,23.30
2022-07-25T19:17:24.763Z,23.15
2022-07-25T19:20:27.711Z,22.94
2022-07-25T19:22:55.235Z,22.85
2022-07-25T19:25:28.231Z,22.79
2022-07-25T19:27:55.626Z,22.67
2022-07-25T19:30:36.006Z,22.60
2022-07-25T19:33:12.480Z,22.54
2022-07-25T19:35:40.932Z,22.49
2022-07-25T19:38:08.369Z,22.41
2022-07-25T19:40:38.732Z,22.38
2022-07-25T19:43:06.066Z,22.27
2022-07-25T19:45:33.870Z,22.21
2022-07-25T19:48:09.707Z,22.13
2022-07-25T19:50:37.115Z,22.04
2022-07-25T19:53:05.076Z,21.94
2022-07-25T19:55:32.109Z,21.84
2022-07-25T19:57:59.639Z,21.77
2022-07-25T20:00:29.375Z,21.67
2022-07-25T20:02:56.547Z,21.60
2022-07-25T20:05:26.320Z,21.50
2022-07-25T20:07:53.830Z,21.46
2022-07-25T20:10:21.103Z,21.38
2022-07-25T20:12:48.927Z,21.29
2022-07-25T20:15:16.586Z,21.25
2022-07-25T20:17:46.997Z,21.21
2022-07-25T20:20:14.224Z,21.16
2022-07-25T20:22:42.198Z,21.11
2022-07-25T20:25:12.116Z,21.04
2022-07-25T20:27:40.304Z,20.97
2022-07-25T20:30:09.251Z,20.92
2022-07-25T20:32:37.379Z,20.88
2022-07-25T20:35:05.433Z,20.85
2022-07-25T20:37:32.548Z,20.81
2022-07-25T20:40:00.088Z,20.76
2022-07-25T20:42:27.594Z,20.74
2022-07-25T20:44:56.760Z,20.70
2022-07-25T20:47:25.155Z,20.70
2022-07-25T20:49:52.297Z,20.68
2022-07-25T20:52:19.383Z,20.65
2022-07-25T20:54:46.421Z,20.62
2022-07-25T20:57:16.138Z,20.61
2022-07-25T20:59:44.090Z,20.64
2022-07-25T21:02:11.549Z,20.63
2022-07-25T21:04:38.916Z,20.62
2022-07-25T21:07:05.952Z,20.62
2022-07-25T21:09:35.151Z,20.61
2022-07-25T21:12:03.126Z,20.61
2022-07-25T21:14:30.940Z,20.58
2022-07-25T21:16:58.055Z,20.56
2022-07-25T21:19:30.051Z,20.53
2022-07-25T21:21:57.121Z,20.48
2022-07-25T21:24:24.137Z,20.45
2022-07-25T21:26:51.655Z,20.40
2022-07-25T21:29:19.160Z,20.34
2022-07-25T21:31:46.350Z,20.29
2022-07-25T21:34:13.887Z,20.24
2022-07-25T21:36:41.918Z,20.20
2022-07-25T21:39:09.501Z,20.13
2022-07-25T21:41:36.995Z,20.07
2022-07-25T21:44:04.154Z,19.97
2022-07-25T21:46:32.260Z,19.93
2022-07-25T21:49:25.499Z,19.84
2022-07-25T21:52:06.256Z,19.75
2022-07-25T21:54:34.689Z,19.69
2022-07-25T21:57:01.714Z,19.67
2022-07-25T21:59:29.877Z,19.62
2022-07-25T22:01:59.508Z,19.60
2022-07-25T22:04:26.984Z,19.53
2022-07-25T22:06:54.073Z,19.48
2022-07-25T22:09:21.420Z,19.39
2022-07-25T22:11:48.504Z,19.30
2022-07-25T22:14:15.977Z,19.22
2022-07-25T22:16:43.582Z,19.14
2022-07-25T22:19:11.291Z,19.08
2022-07-25T22:21:39.944Z,19.02
2022-07-25T22:24:08.075Z,18.98
2022-07-25T22:26:36.271Z,18.94
2022-07-25T22:29:06.672Z,18.89
2022-07-25T22:31:34.425Z,18.84
2022-07-25T22:34:01.621Z,18.80
2022-07-25T22:36:28.692Z,18.76
2022-07-25T22:38:56.027Z,18.73
2022-07-25T22:41:23.159Z,18.68
2022-07-25T22:43:57.842Z,18.65
2022-07-25T22:46:30.856Z,18.64
2022-07-25T22:48:58.867Z,18.62
2022-07-25T22:51:29.060Z,18.63
2022-07-25T22:53:59.672Z,18.63
2022-07-25T22:56:28.587Z,18.56
2022-07-25T22:58:55.830Z,18.47
2022-07-25T23:01:26.015Z,18.41
2022-07-25T23:03:53.300Z,18.30
2022-07-25T23:06:22.296Z,18.26
2022-07-25T23:08:50.160Z,18.20
2022-07-25T23:11:17.673Z,18.13
2022-07-25T23:13:44.739Z,18.08
2022-07-25T23:16:12.092Z,18.02
2022-07-25T23:18:39.345Z,17.98
2022-07-25T23:21:06.529Z,17.95
2022-07-25T23:23:34.262Z,17.89
2022-07-25T23:26:01.540Z,17.86
2022-07-25T23:28:29.553Z,17.84
2022-07-25T23:30:57.111Z,17.81
2022-07-25T23:33:25.227Z,17.79
2022-07-25T23:35:53.888Z,17.75
2022-07-25T23:38:22.007Z,17.70
2022-07-25T23:40:49.842Z,17.66
2022-07-25T23:43:44.689Z,17.62
2022-07-25T23:46:06.439Z,17.56
2022-07-25T23:48:35.442Z,17.50
2022-07-25T23:51:02.445Z,17.49
2022-07-25T23:53:29.729Z,17.45
2022-07-25T23:55:56.733Z,17.40
2022-07-25T23:58:23.671Z,17.38
